sensor_id;sensor_type;location;lat;lon;timestamp;P1;durP1;ratioP1;P2;durP2;ratioP2
79543;SDS011;68994;47.176;7.534;2023-05-07T00:00:25;4.47;;;3.30;;
79543;SDS011;68994;47.176;7.534;2023-05-07T00:02:52;4.82;;;3.80;;
79543;SDS011;68994;47.176;7.534;2023-05-07T00:05:19;6.85;;;4.15;;
79543;SDS011;68994;47.176;7.534;2023-05-07T00:07:46;10.05;;;3.90;;
79543;SDS011;68994;47.176;7.534;2023-05-07T00:10:13;5.95;;;3.70;;
79543;SDS011;68994;47.176;7.534;2023-05-07T00:12:40;4.50;;;3.65;;
79543;SDS011;68994;47.176;7.534;2023-05-07T00:15:07;5.82;;;4.40;;
79543;SDS011;68994;47.176;7.534;2023-05-07T00:17:36;5.35;;;4.10;;
79543;SDS011;68994;47.176;7.534;2023-05-07T00:20:03;6.03;;;3.63;;
79543;SDS011;68994;47.176;7.534;2023-05-07T00:22:31;4.47;;;3.30;;
79543;SDS011;68994;47.176;7.534;2023-05-07T00:24:58;4.32;;;3.58;;
79543;SDS011;68994;47.176;7.534;2023-05-07T00:27:25;6.25;;;4.75;;
79543;SDS011;68994;47.176;7.534;2023-05-07T00:29:52;3.88;;;3.22;;
79543;SDS011;68994;47.176;7.534;2023-05-07T00:32:18;5.15;;;3.53;;
79543;SDS011;68994;47.176;7.534;2023-05-07T00:34:47;4.75;;;3.25;;
79543;SDS011;68994;47.176;7.534;2023-05-07T00:37:14;7.57;;;3.47;;
79543;SDS011;68994;47.176;7.534;2023-05-07T00:39:41;4.90;;;3.40;;
79543;SDS011;68994;47.176;7.534;2023-05-07T00:42:07;5.65;;;4.03;;
79543;SDS011;68994;47.176;7.534;2023-05-07T00:44:34;4.97;;;3.30;;
79543;SDS011;68994;47.176;7.534;2023-05-07T00:47:02;4.38;;;3.15;;
79543;SDS011;68994;47.176;7.534;2023-05-07T00:49:33;6.82;;;4.10;;
79543;SDS011;68994;47.176;7.534;2023-05-07T00:52:06;7.97;;;3.72;;
79543;SDS011;68994;47.176;7.534;2023-05-07T00:54:34;3.95;;;3.10;;
79543;SDS011;68994;47.176;7.534;2023-05-07T00:57:01;5.10;;;3.45;;
79543;SDS011;68994;47.176;7.534;2023-05-07T00:59:31;3.97;;;2.90;;
79543;SDS011;68994;47.176;7.534;2023-05-07T01:01:58;4.65;;;3.00;;
79543;SDS011;68994;47.176;7.534;2023-05-07T01:04:25;4.13;;;3.40;;
79543;SDS011;68994;47.176;7.534;2023-05-07T01:06:52;4.95;;;3.47;;
79543;SDS011;68994;47.176;7.534;2023-05-07T01:09:24;6.30;;;3.30;;
79543;SDS011;68994;47.176;7.534;2023-05-07T01:11:51;6.35;;;3.17;;
79543;SDS011;68994;47.176;7.534;2023-05-07T01:16:46;3.92;;;3.00;;
79543;SDS011;68994;47.176;7.534;2023-05-07T01:19:13;7.55;;;3.90;;
79543;SDS011;68994;47.176;7.534;2023-05-07T01:21:44;3.65;;;2.85;;
79543;SDS011;68994;47.176;7.534;2023-05-07T01:24:15;5.03;;;4.35;;
79543;SDS011;68994;47.176;7.534;2023-05-07T01:26:42;6.47;;;3.83;;
79543;SDS011;68994;47.176;7.534;2023-05-07T01:29:09;5.80;;;3.25;;
79543;SDS011;68994;47.176;7.534;2023-05-07T01:31:36;5.38;;;3.60;;
79543;SDS011;68994;47.176;7.534;2023-05-07T01:34:03;4.40;;;3.58;;
79543;SDS011;68994;47.176;7.534;2023-05-07T01:36:33;6.22;;;3.60;;
79543;SDS011;68994;47.176;7.534;2023-05-07T01:39:01;4.72;;;3.60;;
79543;SDS011;68994;47.176;7.534;2023-05-07T01:41:29;4.70;;;3.58;;
79543;SDS011;68994;47.176;7.534;2023-05-07T01:43:56;6.28;;;4.07;;
79543;SDS011;68994;47.176;7.534;2023-05-07T01:46:26;5.05;;;3.85;;
79543;SDS011;68994;47.176;7.534;2023-05-07T01:48:52;4.63;;;3.58;;
79543;SDS011;68994;47.176;7.534;2023-05-07T01:51:19;5.78;;;3.75;;
79543;SDS011;68994;47.176;7.534;2023-05-07T01:53:47;4.10;;;3.67;;
79543;SDS011;68994;47.176;7.534;2023-05-07T01:56:16;8.45;;;3.53;;
79543;SDS011;68994;47.176;7.534;2023-05-07T01:58:44;5.38;;;4.05;;
79543;SDS011;68994;47.176;7.534;2023-05-07T02:01:11;7.97;;;4.35;;
79543;SDS011;68994;47.176;7.534;2023-05-07T02:03:38;6.53;;;4.65;;
79543;SDS011;68994;47.176;7.534;2023-05-07T02:06:05;4.93;;;3.83;;
79543;SDS011;68994;47.176;7.534;2023-05-07T02:08:32;5.85;;;4.38;;
79543;SDS011;68994;47.176;7.534;2023-05-07T02:10:59;5.38;;;4.22;;
79543;SDS011;68994;47.176;7.534;2023-05-07T02:13:26;6.40;;;4.47;;
79543;SDS011;68994;47.176;7.534;2023-05-07T02:15:56;6.45;;;4.53;;
79543;SDS011;68994;47.176;7.534;2023-05-07T02:18:23;4.78;;;3.67;;
79543;SDS011;68994;47.176;7.534;2023-05-07T02:20:49;4.85;;;3.72;;
79543;SDS011;68994;47.176;7.534;2023-05-07T02:23:16;6.70;;;4.63;;
79543;SDS011;68994;47.176;7.534;2023-05-07T02:25:44;6.60;;;4.05;;
79543;SDS011;68994;47.176;7.534;2023-05-07T02:28:11;6.30;;;4.22;;
79543;SDS011;68994;47.176;7.534;2023-05-07T02:30:37;5.80;;;3.75;;
79543;SDS011;68994;47.176;7.534;2023-05-07T02:33:06;4.60;;;3.70;;
79543;SDS011;68994;47.176;7.534;2023-05-07T02:35:33;5.57;;;3.72;;
79543;SDS011;68994;47.176;7.534;2023-05-07T02:38:00;5.72;;;4.68;;
79543;SDS011;68994;47.176;7.534;2023-05-07T02:40:26;6.25;;;4.80;;
79543;SDS011;68994;47.176;7.534;2023-05-07T02:42:53;6.32;;;4.32;;
79543;SDS011;68994;47.176;7.534;2023-05-07T02:45:20;5.40;;;4.13;;
79543;SDS011;68994;47.176;7.534;2023-05-07T02:47:47;4.80;;;3.95;;
79543;SDS011;68994;47.176;7.534;2023-05-07T02:50:15;6.25;;;4.70;;
79543;SDS011;68994;47.176;7.534;2023-05-07T02:52:41;6.93;;;4.53;;
79543;SDS011;68994;47.176;7.534;2023-05-07T02:55:08;4.63;;;3.83;;
79543;SDS011;68994;47.176;7.534;2023-05-07T02:57:35;7.10;;;4.32;;
79543;SDS011;68994;47.176;7.534;2023-05-07T03:00:09;5.90;;;4.47;;
79543;SDS011;68994;47.176;7.534;2023-05-07T03:02:37;6.53;;;4.25;;
79543;SDS011;68994;47.176;7.534;2023-05-07T03:05:04;6.78;;;4.55;;
79543;SDS011;68994;47.176;7.534;2023-05-07T03:07:33;7.40;;;4.20;;
79543;SDS011;68994;47.176;7.534;2023-05-07T03:10:00;4.72;;;4.00;;
79543;SDS011;68994;47.176;7.534;2023-05-07T03:12:27;7.47;;;4.40;;
79543;SDS011;68994;47.176;7.534;2023-05-07T03:14:53;5.30;;;4.40;;
79543;SDS011;68994;47.176;7.534;2023-05-07T03:17:20;7.03;;;4.45;;
79543;SDS011;68994;47.176;7.534;2023-05-07T03:19:47;5.35;;;4.65;;
79543;SDS011;68994;47.176;7.534;2023-05-07T03:22:14;6.63;;;4.38;;
79543;SDS011;68994;47.176;7.534;2023-05-07T03:24:42;5.65;;;4.18;;
79543;SDS011;68994;47.176;7.534;2023-05-07T03:27:09;5.38;;;4.53;;
79543;SDS011;68994;47.176;7.534;2023-05-07T03:29:35;5.25;;;4.18;;
79543;SDS011;68994;47.176;7.534;2023-05-07T03:32:02;5.75;;;4.50;;
79543;SDS011;68994;47.176;7.534;2023-05-07T03:36:57;6.05;;;4.80;;
79543;SDS011;68994;47.176;7.534;2023-05-07T03:39:23;7.80;;;4.28;;
79543;SDS011;68994;47.176;7.534;2023-05-07T03:41:52;5.80;;;4.07;;
79543;SDS011;68994;47.176;7.534;2023-05-07T03:44:19;6.40;;;4.72;;
79543;SDS011;68994;47.176;7.534;2023-05-07T03:46:45;5.53;;;4.40;;
79543;SDS011;68994;47.176;7.534;2023-05-07T03:49:12;5.47;;;4.75;;
79543;SDS011;68994;47.176;7.534;2023-05-07T03:51:39;4.60;;;4.10;;
79543;SDS011;68994;47.176;7.534;2023-05-07T03:54:05;7.90;;;3.97;;
79543;SDS011;68994;47.176;7.534;2023-05-07T03:56:32;5.10;;;4.10;;
79543;SDS011;68994;47.176;7.534;2023-05-07T03:59:00;7.88;;;4.45;;
79543;SDS011;68994;47.176;7.534;2023-05-07T04:01:27;5.32;;;4.10;;
79543;SDS011;68994;47.176;7.534;2023-05-07T04:03:55;4.82;;;3.92;;
79543;SDS011;68994;47.176;7.534;2023-05-07T04:06:21;4.70;;;3.60;;
79543;SDS011;68994;47.176;7.534;2023-05-07T04:08:48;5.68;;;3.88;;
79543;SDS011;68994;47.176;7.534;2023-05-07T04:11:15;4.95;;;4.28;;
79543;SDS011;68994;47.176;7.534;2023-05-07T04:13:42;6.82;;;3.78;;
79543;SDS011;68994;47.176;7.534;2023-05-07T04:16:10;8.27;;;4.18;;
79543;SDS011;68994;47.176;7.534;2023-05-07T04:18:37;5.97;;;4.20;;
79543;SDS011;68994;47.176;7.534;2023-05-07T04:21:03;4.40;;;3.90;;
79543;SDS011;68994;47.176;7.534;2023-05-07T04:23:30;5.57;;;4.00;;
79543;SDS011;68994;47.176;7.534;2023-05-07T04:25:57;5.28;;;3.58;;
79543;SDS011;68994;47.176;7.534;2023-05-07T04:28:24;4.78;;;3.92;;
79543;SDS011;68994;47.176;7.534;2023-05-07T04:30:51;5.47;;;3.95;;
79543;SDS011;68994;47.176;7.534;2023-05-07T04:33:19;7.18;;;4.32;;
79543;SDS011;68994;47.176;7.534;2023-05-07T04:35:45;4.72;;;3.90;;
79543;SDS011;68994;47.176;7.534;2023-05-07T04:38:12;5.75;;;4.43;;
79543;SDS011;68994;47.176;7.534;2023-05-07T04:40:39;5.70;;;4.95;;
79543;SDS011;68994;47.176;7.534;2023-05-07T04:43:06;6.75;;;4.13;;
79543;SDS011;68994;47.176;7.534;2023-05-07T04:45:36;5.75;;;5.15;;
79543;SDS011;68994;47.176;7.534;2023-05-07T04:48:05;6.22;;;3.85;;
79543;SDS011;68994;47.176;7.534;2023-05-07T04:50:33;4.75;;;4.00;;
79543;SDS011;68994;47.176;7.534;2023-05-07T04:53:00;5.93;;;4.57;;
79543;SDS011;68994;47.176;7.534;2023-05-07T04:55:28;6.30;;;3.88;;
79543;SDS011;68994;47.176;7.534;2023-05-07T04:57:54;4.45;;;3.97;;
79543;SDS011;68994;47.176;7.534;2023-05-07T05:00:21;5.07;;;4.18;;
79543;SDS011;68994;47.176;7.534;2023-05-07T05:02:48;7.15;;;4.53;;
79543;SDS011;68994;47.176;7.534;2023-05-07T05:05:15;6.13;;;3.88;;
79543;SDS011;68994;47.176;7.534;2023-05-07T05:07:43;5.40;;;4.20;;
79543;SDS011;68994;47.176;7.534;2023-05-07T05:10:10;6.28;;;4.53;;
79543;SDS011;68994;47.176;7.534;2023-05-07T05:12:37;6.32;;;4.47;;
79543;SDS011;68994;47.176;7.534;2023-05-07T05:15:04;7.13;;;4.72;;
79543;SDS011;68994;47.176;7.534;2023-05-07T05:17:31;5.72;;;4.47;;
79543;SDS011;68994;47.176;7.534;2023-05-07T05:19:59;5.78;;;4.60;;
79543;SDS011;68994;47.176;7.534;2023-05-07T05:22:26;7.63;;;4.35;;
79543;SDS011;68994;47.176;7.534;2023-05-07T05:24:56;4.95;;;3.58;;
79543;SDS011;68994;47.176;7.534;2023-05-07T05:27:23;8.27;;;4.88;;
79543;SDS011;68994;47.176;7.534;2023-05-07T05:29:50;6.22;;;3.75;;
79543;SDS011;68994;47.176;7.534;2023-05-07T05:32:16;4.43;;;3.13;;
79543;SDS011;68994;47.176;7.534;2023-05-07T05:34:43;4.55;;;3.88;;
79543;SDS011;68994;47.176;7.534;2023-05-07T05:37:10;4.05;;;3.60;;
79543;SDS011;68994;47.176;7.534;2023-05-07T05:39:37;5.28;;;3.80;;
79543;SDS011;68994;47.176;7.534;2023-05-07T05:42:05;5.93;;;4.07;;
79543;SDS011;68994;47.176;7.534;2023-05-07T05:44:32;5.20;;;3.55;;
79543;SDS011;68994;47.176;7.534;2023-05-07T05:46:59;4.38;;;3.67;;
79543;SDS011;68994;47.176;7.534;2023-05-07T05:49:26;5.25;;;3.75;;
79543;SDS011;68994;47.176;7.534;2023-05-07T05:51:52;4.97;;;3.85;;
79543;SDS011;68994;47.176;7.534;2023-05-07T05:54:19;5.65;;;4.40;;
79543;SDS011;68994;47.176;7.534;2023-05-07T05:56:46;6.28;;;4.72;;
79543;SDS011;68994;47.176;7.534;2023-05-07T05:59:14;6.70;;;4.05;;
79543;SDS011;68994;47.176;7.534;2023-05-07T06:01:41;5.60;;;4.50;;
79543;SDS011;68994;47.176;7.534;2023-05-07T06:04:08;5.28;;;4.03;;
79543;SDS011;68994;47.176;7.534;2023-05-07T06:06:34;7.63;;;4.47;;
79543;SDS011;68994;47.176;7.534;2023-05-07T06:09:01;6.45;;;4.35;;
79543;SDS011;68994;47.176;7.534;2023-05-07T06:11:28;4.30;;;3.35;;
79543;SDS011;68994;47.176;7.534;2023-05-07T06:13:55;5.97;;;3.78;;
79543;SDS011;68994;47.176;7.534;2023-05-07T06:16:24;4.30;;;3.50;;
79543;SDS011;68994;47.176;7.534;2023-05-07T06:18:50;5.57;;;3.90;;
79543;SDS011;68994;47.176;7.534;2023-05-07T06:21:17;5.85;;;4.22;;
79543;SDS011;68994;47.176;7.534;2023-05-07T06:23:44;8.80;;;4.68;;
79543;SDS011;68994;47.176;7.534;2023-05-07T06:26:11;4.65;;;3.47;;
79543;SDS011;68994;47.176;7.534;2023-05-07T06:28:37;4.65;;;3.65;;
79543;SDS011;68994;47.176;7.534;2023-05-07T06:31:11;5.55;;;3.53;;
79543;SDS011;68994;47.176;7.534;2023-05-07T06:36:06;5.68;;;3.35;;
79543;SDS011;68994;47.176;7.534;2023-05-07T06:38:33;4.72;;;3.92;;
79543;SDS011;68994;47.176;7.534;2023-05-07T06:41:00;5.00;;;4.50;;
79543;SDS011;68994;47.176;7.534;2023-05-07T06:43:27;5.57;;;3.95;;
79543;SDS011;68994;47.176;7.534;2023-05-07T06:45:53;5.28;;;3.75;;
79543;SDS011;68994;47.176;7.534;2023-05-07T06:48:20;7.15;;;4.13;;
79543;SDS011;68994;47.176;7.534;2023-05-07T06:50:48;5.75;;;3.95;;
79543;SDS011;68994;47.176;7.534;2023-05-07T06:53:15;4.63;;;3.75;;
79543;SDS011;68994;47.176;7.534;2023-05-07T06:55:42;5.45;;;3.47;;
79543;SDS011;68994;47.176;7.534;2023-05-07T06:58:08;4.90;;;3.22;;
79543;SDS011;68994;47.176;7.534;2023-05-07T07:00:35;5.70;;;3.53;;
79543;SDS011;68994;47.176;7.534;2023-05-07T07:03:02;6.30;;;4.65;;
79543;SDS011;68994;47.176;7.534;2023-05-07T07:05:29;6.22;;;3.92;;
79543;SDS011;68994;47.176;7.534;2023-05-07T07:07:57;4.97;;;3.70;;
79543;SDS011;68994;47.176;7.534;2023-05-07T07:10:24;7.03;;;4.10;;
79543;SDS011;68994;47.176;7.534;2023-05-07T07:12:51;5.63;;;3.75;;
79543;SDS011;68994;47.176;7.534;2023-05-07T07:17:45;5.47;;;4.43;;
79543;SDS011;68994;47.176;7.534;2023-05-07T07:20:12;7.40;;;3.92;;
79543;SDS011;68994;47.176;7.534;2023-05-07T07:22:39;5.40;;;4.18;;
79543;SDS011;68994;47.176;7.534;2023-05-07T07:25:08;5.50;;;4.10;;
79543;SDS011;68994;47.176;7.534;2023-05-07T07:27:36;5.13;;;4.28;;
79543;SDS011;68994;47.176;7.534;2023-05-07T07:30:06;7.53;;;4.38;;
79543;SDS011;68994;47.176;7.534;2023-05-07T07:32:33;6.20;;;4.65;;
79543;SDS011;68994;47.176;7.534;2023-05-07T07:35:03;7.55;;;4.28;;
79543;SDS011;68994;47.176;7.534;2023-05-07T07:37:31;5.97;;;4.85;;
79543;SDS011;68994;47.176;7.534;2023-05-07T07:39:57;5.45;;;4.07;;
79543;SDS011;68994;47.176;7.534;2023-05-07T07:42:26;11.18;;;5.28;;
79543;SDS011;68994;47.176;7.534;2023-05-07T07:44:54;7.68;;;4.95;;
79543;SDS011;68994;47.176;7.534;2023-05-07T07:47:22;4.97;;;3.67;;
79543;SDS011;68994;47.176;7.534;2023-05-07T07:49:49;5.05;;;3.80;;
79543;SDS011;68994;47.176;7.534;2023-05-07T07:52:15;4.82;;;4.25;;
79543;SDS011;68994;47.176;7.534;2023-05-07T07:54:42;5.00;;;3.55;;
79543;SDS011;68994;47.176;7.534;2023-05-07T07:57:09;6.97;;;3.80;;
79543;SDS011;68994;47.176;7.534;2023-05-07T07:59:37;4.75;;;4.03;;
79543;SDS011;68994;47.176;7.534;2023-05-07T08:02:05;4.70;;;4.00;;
79543;SDS011;68994;47.176;7.534;2023-05-07T08:04:32;5.32;;;3.78;;
79543;SDS011;68994;47.176;7.534;2023-05-07T08:06:58;6.15;;;3.92;;
79543;SDS011;68994;47.176;7.534;2023-05-07T08:09:25;4.75;;;4.05;;
79543;SDS011;68994;47.176;7.534;2023-05-07T08:11:52;7.53;;;4.38;;
79543;SDS011;68994;47.176;7.534;2023-05-07T08:14:19;4.88;;;3.97;;
79543;SDS011;68994;47.176;7.534;2023-05-07T08:16:47;6.45;;;4.50;;
79543;SDS011;68994;47.176;7.534;2023-05-07T08:19:14;6.20;;;4.13;;
79543;SDS011;68994;47.176;7.534;2023-05-07T08:21:40;5.45;;;4.00;;
79543;SDS011;68994;47.176;7.534;2023-05-07T08:24:07;10.05;;;4.55;;
79543;SDS011;68994;47.176;7.534;2023-05-07T08:26:34;7.88;;;4.75;;
79543;SDS011;68994;47.176;7.534;2023-05-07T08:29:01;4.68;;;3.45;;
79543;SDS011;68994;47.176;7.534;2023-05-07T08:31:27;6.75;;;3.60;;
79543;SDS011;68994;47.176;7.534;2023-05-07T08:33:56;4.88;;;3.45;;
79543;SDS011;68994;47.176;7.534;2023-05-07T08:36:23;8.93;;;3.53;;
79543;SDS011;68994;47.176;7.534;2023-05-07T08:38:49;7.38;;;3.35;;
79543;SDS011;68994;47.176;7.534;2023-05-07T08:41:16;6.43;;;3.88;;
79543;SDS011;68994;47.176;7.534;2023-05-07T08:43:44;4.38;;;3.80;;
79543;SDS011;68994;47.176;7.534;2023-05-07T08:46:16;4.85;;;3.55;;
79543;SDS011;68994;47.176;7.534;2023-05-07T08:48:44;7.75;;;4.00;;
79543;SDS011;68994;47.176;7.534;2023-05-07T08:51:15;5.50;;;3.90;;
79543;SDS011;68994;47.176;7.534;2023-05-07T08:53:42;5.38;;;4.05;;
79543;SDS011;68994;47.176;7.534;2023-05-07T08:56:09;5.07;;;4.57;;
79543;SDS011;68994;47.176;7.534;2023-05-07T09:01:05;4.50;;;3.58;;
79543;SDS011;68994;47.176;7.534;2023-05-07T09:03:34;5.85;;;4.00;;
79543;SDS011;68994;47.176;7.534;2023-05-07T09:06:01;6.00;;;4.40;;
79543;SDS011;68994;47.176;7.534;2023-05-07T09:08:29;4.32;;;3.40;;
79543;SDS011;68994;47.176;7.534;2023-05-07T09:10:56;5.75;;;3.60;;
79543;SDS011;68994;47.176;7.534;2023-05-07T09:13:23;4.95;;;3.60;;
79543;SDS011;68994;47.176;7.534;2023-05-07T09:15:50;4.72;;;3.55;;
79543;SDS011;68994;47.176;7.534;2023-05-07T09:18:17;4.82;;;3.33;;
79543;SDS011;68994;47.176;7.534;2023-05-07T09:20:43;4.90;;;3.47;;
79543;SDS011;68994;47.176;7.534;2023-05-07T09:23:10;5.93;;;3.67;;
79543;SDS011;68994;47.176;7.534;2023-05-07T09:25:38;4.95;;;3.70;;
79543;SDS011;68994;47.176;7.534;2023-05-07T09:28:05;5.43;;;3.92;;
79543;SDS011;68994;47.176;7.534;2023-05-07T09:30:33;6.75;;;4.40;;
79543;SDS011;68994;47.176;7.534;2023-05-07T09:33:01;5.18;;;4.00;;
79543;SDS011;68994;47.176;7.534;2023-05-07T09:35:29;5.90;;;4.20;;
79543;SDS011;68994;47.176;7.534;2023-05-07T09:40:24;4.93;;;3.95;;
79543;SDS011;68994;47.176;7.534;2023-05-07T09:42:54;7.47;;;4.78;;
79543;SDS011;68994;47.176;7.534;2023-05-07T09:45:21;6.47;;;4.55;;
79543;SDS011;68994;47.176;7.534;2023-05-07T09:47:49;6.53;;;4.40;;
79543;SDS011;68994;47.176;7.534;2023-05-07T09:50:20;5.53;;;4.10;;
79543;SDS011;68994;47.176;7.534;2023-05-07T09:52:52;5.97;;;4.10;;
79543;SDS011;68994;47.176;7.534;2023-05-07T09:55:19;5.10;;;4.15;;
79543;SDS011;68994;47.176;7.534;2023-05-07T09:57:48;6.78;;;4.43;;
79543;SDS011;68994;47.176;7.534;2023-05-07T10:00:18;6.47;;;4.60;;
79543;SDS011;68994;47.176;7.534;2023-05-07T10:02:46;5.70;;;3.30;;
79543;SDS011;68994;47.176;7.534;2023-05-07T10:05:15;6.07;;;3.65;;
79543;SDS011;68994;47.176;7.534;2023-05-07T10:07:41;5.75;;;4.43;;
79543;SDS011;68994;47.176;7.534;2023-05-07T10:10:12;5.40;;;4.68;;
79543;SDS011;68994;47.176;7.534;2023-05-07T10:12:40;4.90;;;3.58;;
79543;SDS011;68994;47.176;7.534;2023-05-07T10:15:07;7.80;;;3.88;;
79543;SDS011;68994;47.176;7.534;2023-05-07T10:17:37;7.45;;;4.07;;
79543;SDS011;68994;47.176;7.534;2023-05-07T10:20:04;6.03;;;4.35;;
79543;SDS011;68994;47.176;7.534;2023-05-07T10:22:32;6.10;;;4.20;;
79543;SDS011;68994;47.176;7.534;2023-05-07T10:25:04;5.13;;;3.40;;
79543;SDS011;68994;47.176;7.534;2023-05-07T10:27:36;5.80;;;3.97;;
79543;SDS011;68994;47.176;7.534;2023-05-07T10:30:06;7.13;;;3.92;;
79543;SDS011;68994;47.176;7.534;2023-05-07T10:32:44;4.70;;;3.78;;
79543;SDS011;68994;47.176;7.534;2023-05-07T10:35:14;8.88;;;3.83;;
79543;SDS011;68994;47.176;7.534;2023-05-07T10:37:43;6.80;;;3.53;;
79543;SDS011;68994;47.176;7.534;2023-05-07T10:40:11;6.78;;;4.57;;
79543;SDS011;68994;47.176;7.534;2023-05-07T10:42:49;5.53;;;3.60;;
79543;SDS011;68994;47.176;7.534;2023-05-07T10:45:20;6.25;;;4.10;;
79543;SDS011;68994;47.176;7.534;2023-05-07T10:48:07;6.18;;;3.95;;
79543;SDS011;68994;47.176;7.534;2023-05-07T10:50:35;6.22;;;3.80;;
79543;SDS011;68994;47.176;7.534;2023-05-07T10:53:24;5.80;;;3.95;;
79543;SDS011;68994;47.176;7.534;2023-05-07T11:02:07;7.53;;;3.60;;
79543;SDS011;68994;47.176;7.534;2023-05-07T11:04:37;6.20;;;3.63;;
79543;SDS011;68994;47.176;7.534;2023-05-07T11:09:55;4.32;;;2.92;;
79543;SDS011;68994;47.176;7.534;2023-05-07T11:15:32;4.88;;;3.90;;
79543;SDS011;68994;47.176;7.534;2023-05-07T11:18:01;5.40;;;4.22;;
79543;SDS011;68994;47.176;7.534;2023-05-07T11:26:42;5.63;;;3.90;;
79543;SDS011;68994;47.176;7.534;2023-05-07T11:29:11;4.95;;;3.97;;
79543;SDS011;68994;47.176;7.534;2023-05-07T11:31:39;5.75;;;3.63;;
79543;SDS011;68994;47.176;7.534;2023-05-07T11:34:06;5.03;;;3.80;;
79543;SDS011;68994;47.176;7.534;2023-05-07T11:36:35;6.72;;;3.40;;
79543;SDS011;68994;47.176;7.534;2023-05-07T11:39:25;5.70;;;3.40;;
79543;SDS011;68994;47.176;7.534;2023-05-07T11:41:53;6.43;;;3.35;;
79543;SDS011;68994;47.176;7.534;2023-05-07T11:44:20;4.50;;;2.53;;
79543;SDS011;68994;47.176;7.534;2023-05-07T11:46:47;4.68;;;2.83;;
79543;SDS011;68994;47.176;7.534;2023-05-07T11:49:15;5.80;;;2.90;;
79543;SDS011;68994;47.176;7.534;2023-05-07T11:51:44;8.80;;;2.88;;
79543;SDS011;68994;47.176;7.534;2023-05-07T11:54:11;4.90;;;2.60;;
79543;SDS011;68994;47.176;7.534;2023-05-07T11:56:46;2.88;;;2.10;;
79543;SDS011;68994;47.176;7.534;2023-05-07T11:59:16;4.03;;;2.65;;
79543;SDS011;68994;47.176;7.534;2023-05-07T12:01:45;4.72;;;2.45;;
79543;SDS011;68994;47.176;7.534;2023-05-07T12:04:12;3.72;;;2.00;;
79543;SDS011;68994;47.176;7.534;2023-05-07T12:06:38;2.85;;;1.80;;
79543;SDS011;68994;47.176;7.534;2023-05-07T12:09:06;2.72;;;1.73;;
79543;SDS011;68994;47.176;7.534;2023-05-07T12:11:36;4.53;;;2.03;;
79543;SDS011;68994;47.176;7.534;2023-05-07T12:14:05;2.65;;;1.60;;
79543;SDS011;68994;47.176;7.534;2023-05-07T12:16:31;2.00;;;1.35;;
79543;SDS011;68994;47.176;7.534;2023-05-07T12:18:59;2.95;;;1.60;;
79543;SDS011;68994;47.176;7.534;2023-05-07T12:21:26;2.35;;;1.70;;
79543;SDS011;68994;47.176;7.534;2023-05-07T12:23:52;2.25;;;1.55;;
79543;SDS011;68994;47.176;7.534;2023-05-07T12:26:21;2.20;;;1.70;;
79543;SDS011;68994;47.176;7.534;2023-05-07T12:28:47;3.25;;;1.40;;
79543;SDS011;68994;47.176;7.534;2023-05-07T12:31:14;3.55;;;1.40;;
79543;SDS011;68994;47.176;7.534;2023-05-07T12:33:41;2.50;;;1.40;;
79543;SDS011;68994;47.176;7.534;2023-05-07T12:36:09;2.25;;;1.38;;
79543;SDS011;68994;47.176;7.534;2023-05-07T12:38:38;2.92;;;1.30;;
79543;SDS011;68994;47.176;7.534;2023-05-07T12:41:06;3.22;;;1.20;;
79543;SDS011;68994;47.176;7.534;2023-05-07T12:43:35;2.78;;;1.40;;
79543;SDS011;68994;47.176;7.534;2023-05-07T12:46:04;2.33;;;1.42;;
79543;SDS011;68994;47.176;7.534;2023-05-07T12:48:31;3.10;;;1.27;;
79543;SDS011;68994;47.176;7.534;2023-05-07T12:50:59;2.65;;;1.40;;
79543;SDS011;68994;47.176;7.534;2023-05-07T12:53:27;1.90;;;1.27;;
79543;SDS011;68994;47.176;7.534;2023-05-07T12:55:56;3.25;;;1.20;;
79543;SDS011;68994;47.176;7.534;2023-05-07T12:58:25;1.83;;;1.17;;
79543;SDS011;68994;47.176;7.534;2023-05-07T13:00:55;3.22;;;1.40;;
79543;SDS011;68994;47.176;7.534;2023-05-07T13:03:25;2.10;;;1.25;;
79543;SDS011;68994;47.176;7.534;2023-05-07T13:05:52;2.92;;;2.05;;
79543;SDS011;68994;47.176;7.534;2023-05-07T13:08:27;2.47;;;1.17;;
79543;SDS011;68994;47.176;7.534;2023-05-07T13:10:55;2.70;;;1.50;;
79543;SDS011;68994;47.176;7.534;2023-05-07T13:15:49;2.78;;;1.40;;
79543;SDS011;68994;47.176;7.534;2023-05-07T13:18:17;3.00;;;1.30;;
79543;SDS011;68994;47.176;7.534;2023-05-07T13:20:44;2.30;;;1.30;;
79543;SDS011;68994;47.176;7.534;2023-05-07T13:23:10;3.28;;;1.70;;
79543;SDS011;68994;47.176;7.534;2023-05-07T13:25:37;2.75;;;1.20;;
79543;SDS011;68994;47.176;7.534;2023-05-07T13:28:04;3.35;;;1.48;;
79543;SDS011;68994;47.176;7.534;2023-05-07T13:30:30;2.20;;;1.75;;
79543;SDS011;68994;47.176;7.534;2023-05-07T13:32:57;2.05;;;1.40;;
79543;SDS011;68994;47.176;7.534;2023-05-07T13:35:25;2.55;;;1.63;;
79543;SDS011;68994;47.176;7.534;2023-05-07T13:37:52;1.67;;;1.20;;
79543;SDS011;68994;47.176;7.534;2023-05-07T13:40:21;2.22;;;1.38;;
79543;SDS011;68994;47.176;7.534;2023-05-07T13:42:48;2.40;;;1.33;;
79543;SDS011;68994;47.176;7.534;2023-05-07T13:45:16;2.38;;;1.00;;
79543;SDS011;68994;47.176;7.534;2023-05-07T13:47:42;1.90;;;1.00;;
79543;SDS011;68994;47.176;7.534;2023-05-07T13:50:10;2.22;;;1.45;;
79543;SDS011;68994;47.176;7.534;2023-05-07T13:52:40;2.13;;;1.33;;
79543;SDS011;68994;47.176;7.534;2023-05-07T13:55:08;1.80;;;1.20;;
79543;SDS011;68994;47.176;7.534;2023-05-07T13:57:34;2.03;;;1.15;;
79543;SDS011;68994;47.176;7.534;2023-05-07T14:00:01;1.98;;;1.23;;
79543;SDS011;68994;47.176;7.534;2023-05-07T14:02:29;2.70;;;1.38;;
79543;SDS011;68994;47.176;7.534;2023-05-07T14:04:56;2.00;;;1.00;;
79543;SDS011;68994;47.176;7.534;2023-05-07T14:07:23;2.00;;;1.08;;
79543;SDS011;68994;47.176;7.534;2023-05-07T14:09:51;3.33;;;2.25;;
79543;SDS011;68994;47.176;7.534;2023-05-07T14:12:17;2.65;;;1.33;;
79543;SDS011;68994;47.176;7.534;2023-05-07T14:14:44;1.63;;;1.15;;
79543;SDS011;68994;47.176;7.534;2023-05-07T14:17:12;3.00;;;1.30;;
79543;SDS011;68994;47.176;7.534;2023-05-07T14:19:38;2.42;;;1.23;;
79543;SDS011;68994;47.176;7.534;2023-05-07T14:22:05;3.50;;;1.23;;
79543;SDS011;68994;47.176;7.534;2023-05-07T14:24:32;6.00;;;1.23;;
79543;SDS011;68994;47.176;7.534;2023-05-07T14:27:00;4.00;;;1.30;;
79543;SDS011;68994;47.176;7.534;2023-05-07T14:29:27;2.47;;;1.30;;
79543;SDS011;68994;47.176;7.534;2023-05-07T14:31:53;2.63;;;1.27;;
79543;SDS011;68994;47.176;7.534;2023-05-07T14:34:20;3.72;;;1.50;;
79543;SDS011;68994;47.176;7.534;2023-05-07T14:36:47;4.97;;;1.95;;
79543;SDS011;68994;47.176;7.534;2023-05-07T14:39:14;2.60;;;1.13;;
79543;SDS011;68994;47.176;7.534;2023-05-07T14:41:41;2.08;;;1.60;;
79543;SDS011;68994;47.176;7.534;2023-05-07T14:44:09;1.83;;;1.15;;
79543;SDS011;68994;47.176;7.534;2023-05-07T14:46:35;2.72;;;1.42;;
79543;SDS011;68994;47.176;7.534;2023-05-07T14:49:02;2.15;;;1.25;;
79543;SDS011;68994;47.176;7.534;2023-05-07T14:51:29;2.83;;;1.27;;
79543;SDS011;68994;47.176;7.534;2023-05-07T14:53:56;2.50;;;1.40;;
79543;SDS011;68994;47.176;7.534;2023-05-07T14:56:22;3.00;;;1.42;;
79543;SDS011;68994;47.176;7.534;2023-05-07T14:58:51;2.60;;;1.50;;
79543;SDS011;68994;47.176;7.534;2023-05-07T15:01:19;2.40;;;1.38;;
79543;SDS011;68994;47.176;7.534;2023-05-07T15:03:49;2.75;;;1.50;;
79543;SDS011;68994;47.176;7.534;2023-05-07T15:06:16;2.35;;;1.50;;
79543;SDS011;68994;47.176;7.534;2023-05-07T15:08:43;2.85;;;1.58;;
79543;SDS011;68994;47.176;7.534;2023-05-07T15:11:09;4.40;;;1.73;;
79543;SDS011;68994;47.176;7.534;2023-05-07T15:13:36;2.50;;;1.70;;
79543;SDS011;68994;47.176;7.534;2023-05-07T15:16:03;4.78;;;1.70;;
79543;SDS011;68994;47.176;7.534;2023-05-07T15:18:36;2.50;;;1.70;;
79543;SDS011;68994;47.176;7.534;2023-05-07T15:21:02;4.32;;;2.03;;
79543;SDS011;68994;47.176;7.534;2023-05-07T15:23:29;2.90;;;2.20;;
79543;SDS011;68994;47.176;7.534;2023-05-07T15:25:57;5.88;;;2.17;;